createdAt,value
2023-03-03T00:01:51.636Z,27.90
2023-03-03T00:04:19.742Z,29.30
2023-03-03T00:06:47.392Z,26.85
2023-03-03T00:09:15.308Z,29.25
2023-03-03T00:11:44.297Z,26.30
2023-03-03T00:14:23.382Z,23.35
2023-03-03T00:16:51.070Z,23.10
2023-03-03T00:19:20.508Z,24.33
2023-03-03T00:21:49.759Z,22.33
2023-03-03T00:24:22.725Z,24.83
2023-03-03T00:26:55.338Z,22.92
2023-03-03T00:29:30.615Z,24.58
2023-03-03T00:32:17.195Z,24.27
2023-03-03T00:34:45.322Z,23.85
2023-03-03T00:37:30.055Z,22.67
2023-03-03T00:40:20.090Z,22.58
2023-03-03T00:42:53.308Z,21.58
2023-03-03T00:45:32.535Z,21.65
2023-03-03T00:48:18.312Z,22.25
2023-03-03T00:50:45.948Z,22.70
2023-03-03T00:53:17.332Z,23.35
2023-03-03T00:55:46.519Z,23.15
2023-03-03T00:58:16.313Z,23.85
2023-03-03T01:00:46.988Z,22.75
2023-03-03T01:03:19.811Z,21.50
2023-03-03T01:05:48.116Z,22.25
2023-03-03T01:08:17.300Z,26.90
2023-03-03T01:10:50.950Z,23.45
2023-03-03T01:13:23.536Z,24.60
2023-03-03T01:15:51.338Z,24.10
2023-03-03T01:18:22.346Z,26.00
2023-03-03T01:20:52.325Z,25.10
2023-03-03T01:23:19.809Z,22.83
2023-03-03T01:25:47.355Z,26.65
2023-03-03T01:28:15.333Z,24.77
2023-03-03T01:30:44.364Z,27.15
2023-03-03T01:33:14.378Z,26.27
2023-03-03T01:35:45.011Z,26.63
2023-03-03T01:38:12.783Z,25.10
2023-03-03T01:40:40.730Z,24.90
2023-03-03T01:43:08.478Z,28.25
2023-03-03T01:46:14.560Z,27.25
2023-03-03T01:48:46.537Z,27.27
2023-03-03T01:51:21.575Z,25.75
2023-03-03T01:53:55.312Z,28.58
2023-03-03T01:56:23.850Z,24.85
2023-03-03T01:58:56.520Z,25.83
2023-03-03T02:01:28.576Z,26.98
2023-03-03T02:04:26.400Z,25.73
2023-03-03T02:06:58.968Z,28.90
2023-03-03T02:12:02.413Z,30.90
2023-03-03T02:16:59.736Z,30.75
2023-03-03T02:19:35.545Z,31.05
2023-03-03T02:22:04.396Z,29.15
2023-03-03T02:24:40.405Z,31.40
2023-03-03T02:27:09.706Z,36.05
2023-03-03T02:29:37.494Z,35.85
2023-03-03T02:32:30.622Z,38.53
2023-03-03T02:34:58.228Z,40.20
2023-03-03T02:37:27.544Z,43.35
2023-03-03T02:39:56.677Z,39.45
2023-03-03T02:42:30.538Z,39.22
2023-03-03T02:44:59.399Z,40.40
2023-03-03T02:47:26.990Z,37.58
2023-03-03T02:49:54.557Z,39.33
2023-03-03T02:52:23.560Z,40.67
2023-03-03T02:54:51.196Z,40.63
2023-03-03T02:57:19.666Z,39.15
2023-03-03T02:59:50.618Z,39.15
2023-03-03T03:02:19.301Z,38.83
2023-03-03T03:04:47.131Z,32.92
2023-03-03T03:07:19.255Z,35.38
2023-03-03T03:09:47.809Z,35.22
2023-03-03T03:12:15.927Z,37.78
2023-03-03T03:14:44.582Z,38.53
2023-03-03T03:17:15.322Z,37.90
2023-03-03T03:19:44.231Z,36.95
2023-03-03T03:22:12.291Z,39.28
2023-03-03T03:24:40.137Z,40.00
2023-03-03T03:27:09.682Z,40.80
2023-03-03T03:29:37.477Z,42.72
2023-03-03T03:32:06.766Z,45.92
2023-03-03T03:34:35.708Z,49.42
2023-03-03T03:37:05.251Z,52.88
2023-03-03T03:39:33.383Z,49.50
2023-03-03T03:42:02.655Z,53.70
2023-03-03T03:44:30.275Z,49.50
2023-03-03T03:46:58.746Z,47.00
2023-03-03T03:49:26.934Z,52.75
2023-03-03T03:51:58.988Z,55.17
2023-03-03T03:54:30.184Z,47.53
2023-03-03T03:56:58.244Z,45.08
2023-03-03T03:59:26.375Z,42.22
2023-03-03T04:01:56.704Z,37.45
2023-03-03T04:04:25.608Z,38.25
2023-03-03T04:06:54.637Z,39.83
2023-03-03T04:09:24.378Z,35.55
2023-03-03T04:11:53.577Z,38.83
2023-03-03T04:14:21.115Z,38.47
2023-03-03T04:16:48.869Z,35.63
2023-03-03T04:19:19.304Z,37.35
2023-03-03T04:21:52.601Z,36.63
2023-03-03T04:24:20.765Z,33.97
2023-03-03T04:27:17.295Z,37.03
2023-03-03T04:29:45.721Z,36.75
2023-03-03T04:32:15.461Z,34.03
2023-03-03T04:34:43.142Z,35.92
2023-03-03T04:37:10.772Z,37.88
2023-03-03T04:39:38.491Z,41.22
2023-03-03T04:42:06.420Z,34.03
2023-03-03T04:44:35.455Z,42.47
2023-03-03T04:47:03.331Z,37.53
2023-03-03T04:49:31.831Z,38.97
2023-03-03T04:51:59.681Z,32.85
2023-03-03T04:54:28.676Z,35.63
2023-03-03T04:56:56.305Z,35.40
2023-03-03T04:59:26.439Z,31.77
2023-03-03T05:01:55.339Z,33.80
2023-03-03T05:04:22.850Z,36.08
2023-03-03T05:06:50.496Z,33.60
2023-03-03T05:09:18.037Z,33.00
2023-03-03T05:11:45.627Z,33.42
2023-03-03T05:14:13.630Z,33.85
2023-03-03T05:16:42.069Z,32.92
2023-03-03T05:19:12.361Z,29.48
2023-03-03T05:21:42.192Z,28.15
2023-03-03T05:24:10.162Z,28.38
2023-03-03T05:26:42.265Z,29.08
2023-03-03T05:29:10.340Z,26.45
2023-03-03T05:31:38.101Z,25.55
2023-03-03T05:34:05.619Z,26.85
2023-03-03T05:36:34.474Z,27.02
2023-03-03T05:39:07.279Z,24.50
2023-03-03T05:42:00.872Z,24.27
2023-03-03T05:44:55.283Z,26.98
2023-03-03T05:47:25.707Z,24.02
2023-03-03T05:49:53.372Z,26.70
2023-03-03T05:52:24.161Z,26.50
2023-03-03T05:54:52.303Z,26.23
2023-03-03T05:57:19.781Z,26.48
2023-03-03T05:59:47.361Z,25.10
2023-03-03T06:02:16.389Z,28.48
2023-03-03T06:04:44.048Z,25.45
2023-03-03T06:07:11.620Z,28.65
2023-03-03T06:09:42.290Z,26.20
2023-03-03T06:12:10.018Z,25.90
2023-03-03T06:14:37.598Z,23.52
2023-03-03T06:17:05.969Z,26.10
2023-03-03T06:19:34.313Z,26.10
2023-03-03T06:22:01.843Z,23.58
2023-03-03T06:24:31.011Z,24.15
2023-03-03T06:27:01.322Z,22.38
2023-03-03T06:29:30.002Z,25.27
2023-03-03T06:31:57.783Z,21.70
2023-03-03T06:34:25.596Z,26.23
2023-03-03T06:36:53.164Z,23.10
2023-03-03T06:39:21.313Z,23.05
2023-03-03T06:41:49.361Z,25.58
2023-03-03T06:44:18.372Z,25.27
2023-03-03T06:46:46.372Z,24.15
2023-03-03T06:49:14.640Z,23.95
2023-03-03T06:51:43.798Z,26.35
2023-03-03T06:54:13.816Z,21.65
2023-03-03T06:56:42.913Z,27.20
2023-03-03T06:59:14.041Z,33.42
2023-03-03T07:01:43.996Z,27.98
2023-03-03T07:04:17.379Z,27.42
2023-03-03T07:06:45.052Z,26.73
2023-03-03T07:09:21.685Z,29.05
2023-03-03T07:11:49.307Z,30.33
2023-03-03T07:14:19.057Z,26.73
2023-03-03T07:16:48.241Z,29.75
2023-03-03T07:19:21.872Z,29.67
2023-03-03T07:21:50.436Z,27.88
2023-03-03T07:24:28.668Z,26.80
2023-03-03T07:27:02.364Z,24.52
2023-03-03T07:29:31.360Z,26.95
2023-03-03T07:32:02.804Z,26.27
2023-03-03T07:34:37.741Z,27.77
2023-03-03T07:37:14.202Z,28.60
2023-03-03T07:39:45.852Z,24.48
2023-03-03T07:42:23.155Z,24.08
2023-03-03T07:45:02.403Z,24.83
2023-03-03T07:47:36.565Z,22.88
2023-03-03T07:50:16.736Z,24.15
2023-03-03T07:52:50.156Z,24.95
2023-03-03T07:55:35.305Z,22.52
2023-03-03T07:58:19.071Z,22.88
2023-03-03T08:01:23.322Z,24.17
2023-03-03T08:03:54.394Z,24.63
2023-03-03T08:06:47.477Z,24.45
2023-03-03T08:09:54.340Z,26.02
2023-03-03T08:12:32.388Z,24.33
2023-03-03T08:15:27.294Z,26.58
2023-03-03T08:17:56.902Z,26.45
2023-03-03T08:20:45.390Z,25.05
2023-03-03T08:23:16.226Z,24.48
2023-03-03T08:25:47.473Z,27.80
2023-03-03T08:28:15.669Z,27.83
2023-03-03T08:30:45.156Z,26.83
2023-03-03T08:33:13.562Z,27.55
2023-03-03T08:35:43.419Z,25.83
2023-03-03T08:38:12.520Z,26.23
2023-03-03T08:40:40.512Z,24.38
2023-03-03T08:43:08.071Z,23.83
2023-03-03T08:45:36.767Z,24.02
2023-03-03T08:48:06.374Z,28.85
2023-03-03T08:50:34.224Z,24.13
2023-03-03T08:53:03.109Z,24.10
2023-03-03T08:55:31.309Z,24.60
2023-03-03T08:58:02.362Z,28.77
2023-03-03T09:00:29.941Z,25.70
2023-03-03T09:02:57.554Z,24.50
2023-03-03T09:05:25.926Z,28.92
2023-03-03T09:07:55.171Z,25.52
2023-03-03T09:10:29.347Z,23.83
2023-03-03T09:13:01.124Z,25.73
2023-03-03T09:15:31.313Z,24.88
2023-03-03T09:18:01.120Z,26.10
2023-03-03T09:20:35.293Z,21.23
2023-03-03T09:23:26.528Z,25.27
2023-03-03T09:25:55.390Z,29.38
2023-03-03T09:28:26.046Z,22.80
2023-03-03T09:30:57.742Z,20.45
2023-03-03T09:33:29.027Z,22.30
2023-03-03T09:36:06.820Z,23.23
2023-03-03T09:38:40.889Z,24.27
2023-03-03T09:41:20.844Z,23.02
2023-03-03T09:44:03.767Z,23.17
2023-03-03T09:46:41.979Z,20.50
2023-03-03T09:49:21.797Z,21.80
2023-03-03T09:52:04.408Z,20.45
2023-03-03T09:54:49.108Z,19.23
2023-03-03T09:57:23.896Z,19.20
2023-03-03T10:00:08.397Z,21.80
2023-03-03T10:02:53.777Z,20.33
2023-03-03T10:05:35.748Z,18.88
2023-03-03T10:08:22.584Z,18.92
2023-03-03T10:10:58.062Z,19.00
2023-03-03T10:13:40.440Z,20.73
2023-03-03T10:16:28.893Z,19.00
2023-03-03T10:19:02.031Z,19.17
2023-03-03T10:21:36.485Z,18.33
2023-03-03T10:24:15.106Z,20.33
2023-03-03T10:27:11.943Z,19.58
2023-03-03T10:29:51.822Z,19.92
2023-03-03T10:32:36.642Z,18.52
2023-03-03T10:35:29.578Z,21.13
2023-03-03T10:38:14.561Z,22.15
2023-03-03T10:40:51.713Z,19.02
2023-03-03T10:43:40.475Z,22.25
2023-03-03T10:46:40.772Z,18.40
2023-03-03T10:49:20.028Z,18.52
2023-03-03T10:52:03.590Z,18.30
2023-03-03T10:54:48.302Z,19.33
2023-03-03T10:57:23.820Z,21.20
2023-03-03T11:00:06.296Z,18.63
2023-03-03T11:02:49.557Z,19.73
2023-03-03T11:05:33.957Z,19.20
2023-03-03T11:08:08.190Z,17.95
2023-03-03T11:10:49.570Z,21.25
2023-03-03T11:13:25.171Z,25.27
2023-03-03T11:16:15.673Z,23.13
2023-03-03T11:19:02.540Z,23.50
2023-03-03T11:21:36.160Z,21.20
2023-03-03T11:24:16.967Z,21.20
2023-03-03T11:27:00.869Z,25.33
2023-03-03T11:29:52.752Z,21.30
2023-03-03T11:32:28.195Z,23.70
2023-03-03T11:35:12.301Z,25.70
2023-03-03T11:37:48.338Z,25.38
2023-03-03T11:40:21.073Z,21.30
2023-03-03T11:43:01.312Z,24.13
2023-03-03T11:45:35.244Z,26.17
2023-03-03T11:48:14.349Z,24.67
2023-03-03T11:50:53.552Z,23.67
2023-03-03T11:53:34.371Z,25.98
2023-03-03T11:56:16.835Z,23.02
2023-03-03T12:01:24.304Z,26.33
2023-03-03T12:03:59.387Z,24.02
2023-03-03T12:06:42.985Z,23.08
2023-03-03T12:09:29.286Z,23.17
2023-03-03T12:12:03.976Z,25.33
2023-03-03T12:14:47.943Z,26.00
2023-03-03T12:17:33.167Z,27.55
2023-03-03T12:20:09.170Z,30.42
2023-03-03T12:22:45.917Z,31.77
2023-03-03T12:25:36.299Z,30.17
2023-03-03T12:28:13.445Z,30.05
2023-03-03T12:31:10.919Z,29.38
2023-03-03T12:33:53.064Z,27.52
2023-03-03T12:36:55.761Z,29.23
2023-03-03T12:39:41.402Z,27.42
2023-03-03T12:42:19.322Z,26.25
2023-03-03T12:44:53.076Z,26.38
2023-03-03T12:47:49.061Z,26.08
2023-03-03T12:50:28.445Z,25.45
2023-03-03T12:53:11.465Z,26.08
2023-03-03T12:55:50.416Z,25.17
2023-03-03T12:58:30.470Z,27.13
2023-03-03T13:01:10.450Z,26.13
2023-03-03T13:03:55.368Z,25.48
2023-03-03T13:06:58.592Z,23.40
2023-03-03T13:09:36.313Z,27.67
2023-03-03T13:12:23.435Z,22.10
2023-03-03T13:14:58.441Z,22.73
2023-03-03T13:17:32.268Z,19.60
2023-03-03T13:20:05.374Z,22.92
2023-03-03T13:25:24.841Z,20.67
2023-03-03T13:28:02.580Z,21.25
2023-03-03T13:30:35.044Z,21.15
2023-03-03T13:33:11.047Z,22.15
2023-03-03T13:35:45.055Z,17.75
2023-03-03T13:38:15.665Z,18.73
2023-03-03T13:40:47.287Z,19.43
2023-03-03T13:43:21.428Z,18.92
2023-03-03T13:46:02.334Z,19.63
2023-03-03T13:48:53.012Z,17.17
2023-03-03T13:51:35.395Z,21.30
2023-03-03T13:54:15.270Z,20.50
2023-03-03T13:57:05.610Z,22.73
2023-03-03T13:59:46.919Z,21.30
2023-03-03T14:02:40.929Z,22.08
2023-03-03T14:05:17.364Z,20.33
2023-03-03T14:07:53.417Z,20.63
2023-03-03T14:10:25.646Z,19.85
2023-03-03T14:13:03.387Z,22.40
2023-03-03T14:15:36.810Z,23.60
2023-03-03T14:18:36.397Z,23.67
2023-03-03T14:21:10.435Z,24.75
2023-03-03T14:23:51.223Z,21.42
2023-03-03T14:26:19.179Z,25.20
2023-03-03T14:28:53.009Z,22.73
2023-03-03T14:31:26.673Z,25.77
2023-03-03T14:34:03.201Z,22.05
2023-03-03T14:36:36.403Z,22.45
2023-03-03T14:39:27.995Z,25.58
2023-03-03T14:41:57.415Z,25.87
2023-03-03T14:44:29.967Z,26.95
2023-03-03T14:47:24.424Z,28.33
2023-03-03T14:49:54.663Z,26.70
2023-03-03T14:52:25.972Z,27.33
2023-03-03T14:54:56.411Z,30.38
2023-03-03T14:57:46.119Z,27.52
2023-03-03T15:00:29.902Z,27.00
2023-03-03T15:03:17.177Z,26.90
2023-03-03T15:05:50.953Z,29.05
2023-03-03T15:08:29.406Z,25.95
2023-03-03T15:11:14.083Z,24.63
2023-03-03T15:13:41.875Z,24.17
2023-03-03T15:16:18.367Z,23.63
2023-03-03T15:19:09.797Z,28.40
2023-03-03T15:21:43.788Z,23.93
2023-03-03T15:24:19.493Z,26.20
2023-03-03T15:26:53.699Z,22.90
2023-03-03T15:29:28.376Z,25.35
2023-03-03T15:32:03.459Z,25.73
2023-03-03T15:35:03.908Z,24.48
2023-03-03T15:37:47.073Z,27.33
2023-03-03T15:40:23.534Z,22.80
2023-03-03T15:43:00.470Z,22.70
2023-03-03T15:45:35.407Z,22.65
2023-03-03T15:48:20.002Z,24.45
2023-03-03T15:50:56.861Z,22.92
2023-03-03T15:53:40.967Z,23.58
2023-03-03T15:56:23.448Z,21.13
2023-03-03T15:59:09.405Z,24.17
2023-03-03T16:01:42.024Z,23.30
2023-03-03T16:04:13.968Z,22.70
2023-03-03T16:06:50.437Z,23.45
2023-03-03T16:09:32.356Z,25.25
2023-03-03T16:12:06.347Z,23.65
2023-03-03T16:14:59.479Z,22.05
2023-03-03T16:17:33.314Z,25.20
2023-03-03T16:20:12.301Z,23.95
2023-03-03T16:23:06.591Z,21.35
2023-03-03T16:25:50.553Z,22.95
2023-03-03T16:28:28.376Z,22.83
2023-03-03T16:31:03.641Z,22.00
2023-03-03T16:33:37.864Z,23.35
2023-03-03T16:36:13.736Z,23.05
2023-03-03T16:38:46.383Z,21.75
2023-03-03T16:41:19.894Z,22.45
2023-03-03T16:44:01.587Z,24.63
2023-03-03T16:46:35.318Z,22.60
2023-03-03T16:49:15.625Z,20.52
2023-03-03T16:51:52.008Z,21.60
2023-03-03T16:54:34.295Z,23.45
2023-03-03T16:57:10.535Z,21.52
2023-03-03T16:59:55.565Z,22.88
2023-03-03T17:02:54.660Z,24.23
2023-03-03T17:05:30.579Z,23.13
2023-03-03T17:08:19.245Z,22.63
2023-03-03T17:10:53.016Z,23.52
2023-03-03T17:13:53.489Z,25.33
2023-03-03T17:16:37.052Z,21.65
2023-03-03T17:19:23.111Z,27.17
2023-03-03T17:22:03.362Z,26.20
2023-03-03T17:24:41.420Z,26.05
2023-03-03T17:27:19.344Z,25.30
2023-03-03T17:30:02.472Z,24.88
2023-03-03T17:32:45.948Z,27.15
2023-03-03T17:35:38.371Z,21.52
2023-03-03T17:38:16.309Z,23.13
2023-03-03T17:40:57.335Z,24.13
2023-03-03T17:43:32.750Z,23.52
2023-03-03T17:46:03.397Z,24.63
2023-03-03T17:49:15.806Z,22.25
2023-03-03T17:52:01.476Z,26.15
2023-03-03T17:54:53.264Z,29.00
2023-03-03T17:57:35.653Z,26.77
2023-03-03T18:00:20.455Z,23.10
2023-03-03T18:03:38.686Z,26.88
2023-03-03T18:06:55.735Z,21.73
2023-03-03T18:09:36.612Z,23.27
2023-03-03T18:12:16.321Z,26.35
2023-03-03T18:15:14.577Z,21.98
2023-03-03T18:18:04.103Z,22.75
2023-03-03T18:20:57.552Z,23.35
2023-03-03T18:23:33.915Z,23.08
2023-03-03T18:26:04.301Z,21.77
2023-03-03T18:28:47.332Z,23.75
2023-03-03T18:31:25.452Z,22.88
2023-03-03T18:34:04.823Z,24.33
2023-03-03T18:36:54.491Z,26.30
2023-03-03T18:39:46.416Z,27.27
2023-03-03T18:42:39.279Z,27.20
2023-03-03T18:45:50.275Z,23.95
2023-03-03T18:48:21.957Z,25.35
2023-03-03T18:50:52.355Z,22.17
2023-03-03T18:53:24.620Z,25.45
2023-03-03T18:55:53.881Z,23.90
2023-03-03T18:58:34.728Z,27.45
2023-03-03T19:01:30.097Z,24.35
2023-03-03T19:04:17.305Z,21.50
2023-03-03T19:07:13.887Z,22.35
2023-03-03T19:09:49.334Z,22.23
2023-03-03T19:12:18.507Z,21.65
2023-03-03T19:14:46.246Z,21.38
2023-03-03T19:17:45.407Z,23.13
2023-03-03T19:20:18.139Z,23.63
2023-03-03T19:22:50.410Z,23.45
2023-03-03T19:25:26.933Z,23.88
2023-03-03T19:28:13.662Z,25.88
2023-03-03T19:30:48.565Z,22.10
2023-03-03T19:33:42.775Z,25.83
2023-03-03T19:36:38.921Z,23.77
2023-03-03T19:39:39.356Z,25.55
2023-03-03T19:42:22.322Z,22.35
2023-03-03T19:45:04.199Z,23.40
2023-03-03T19:47:39.885Z,22.45
2023-03-03T19:50:21.846Z,23.45
2023-03-03T19:53:01.515Z,24.98
2023-03-03T19:55:40.128Z,27.35
2023-03-03T19:58:22.237Z,25.35
2023-03-03T20:00:58.054Z,23.00
2023-03-03T20:04:07.329Z,20.05
2023-03-03T20:06:48.973Z,22.88
2023-03-03T20:09:27.540Z,20.77
2023-03-03T20:12:28.116Z,19.40
2023-03-03T20:15:05.649Z,21.20
2023-03-03T20:17:47.921Z,18.35
2023-03-03T20:20:41.002Z,19.13
2023-03-03T20:23:20.133Z,18.00
2023-03-03T20:25:52.285Z,18.02
2023-03-03T20:29:11.815Z,19.55
2023-03-03T20:31:47.344Z,18.50
2023-03-03T20:34:24.421Z,20.45
2023-03-03T20:37:00.394Z,19.83
2023-03-03T20:39:39.287Z,13.60
2023-03-03T20:42:21.402Z,14.40
2023-03-03T20:47:47.307Z,16.20
2023-03-03T20:50:25.132Z,14.75
2023-03-03T20:53:02.807Z,12.98
2023-03-03T20:55:43.602Z,12.10
2023-03-03T20:58:20.540Z,10.57
2023-03-03T21:00:57.603Z,10.40
2023-03-03T21:03:32.411Z,9.50
2023-03-03T21:06:01.945Z,10.35
2023-03-03T21:08:47.073Z,10.20
2023-03-03T21:11:16.480Z,8.25
2023-03-03T21:13:46.832Z,10.52
2023-03-03T21:16:30.506Z,8.20
2023-03-03T21:18:59.669Z,9.05
2023-03-03T21:21:29.094Z,6.78
2023-03-03T21:23:56.648Z,8.13
2023-03-03T21:26:53.436Z,7.10
2023-03-03T21:29:25.275Z,10.20
2023-03-03T21:31:56.142Z,6.90
2023-03-03T21:34:29.987Z,8.63
2023-03-03T21:36:58.878Z,9.57
2023-03-03T21:39:29.520Z,9.30
2023-03-03T21:42:02.528Z,6.93
2023-03-03T21:44:34.438Z,10.60
2023-03-03T21:47:02.394Z,14.50
2023-03-03T21:49:30.791Z,21.70
2023-03-03T21:51:58.356Z,11.52
2023-03-03T21:54:25.875Z,11.73
2023-03-03T21:56:54.196Z,14.77
2023-03-03T21:59:21.740Z,13.35
2023-03-03T22:01:50.678Z,12.13
2023-03-03T22:04:19.886Z,14.48
2023-03-03T22:06:47.648Z,11.68
2023-03-03T22:09:15.738Z,13.63
2023-03-03T22:11:43.241Z,8.50
2023-03-03T22:14:11.043Z,9.38
2023-03-03T22:16:38.656Z,12.15
2023-03-03T22:19:09.263Z,13.98
2023-03-03T22:21:37.099Z,15.82
2023-03-03T22:24:05.361Z,11.30
2023-03-03T22:26:32.962Z,12.55
2023-03-03T22:29:02.318Z,12.43
2023-03-03T22:31:31.763Z,12.27
2023-03-03T22:34:01.316Z,13.35
2023-03-03T22:36:30.363Z,8.85
2023-03-03T22:38:57.874Z,13.38
2023-03-03T22:41:25.573Z,13.00
2023-03-03T22:43:53.677Z,12.75
2023-03-03T22:46:21.458Z,11.32
2023-03-03T22:48:49.106Z,12.38
2023-03-03T22:51:18.366Z,10.02
2023-03-03T22:54:12.848Z,10.50
2023-03-03T22:56:40.406Z,17.10
2023-03-03T22:59:07.979Z,10.77
2023-03-03T23:01:35.503Z,10.73
2023-03-03T23:04:03.185Z,11.45
2023-03-03T23:06:30.681Z,11.13
2023-03-03T23:08:58.193Z,13.82
2023-03-03T23:11:27.583Z,16.33
2023-03-03T23:13:55.316Z,13.43
2023-03-03T23:16:22.891Z,15.55
2023-03-03T23:18:50.411Z,15.23
2023-03-03T23:21:18.296Z,13.65
2023-03-03T23:23:48.567Z,10.57
2023-03-03T23:26:16.834Z,13.45
2023-03-03T23:28:46.406Z,13.57
2023-03-03T23:31:13.974Z,11.32
2023-03-03T23:33:41.572Z,13.00
2023-03-03T23:36:10.290Z,20.40
2023-03-03T23:38:37.873Z,16.17
2023-03-03T23:41:05.750Z,11.88
2023-03-03T23:43:33.713Z,12.65
2023-03-03T23:46:03.120Z,10.98
2023-03-03T23:48:30.633Z,14.15
2023-03-03T23:50:58.640Z,8.60
2023-03-03T23:53:26.664Z,14.20
2023-03-03T23:55:54.852Z,15.00
2023-03-03T23:58:23.320Z,13.52
